Time;durP1;ratioP1;P1;durP2;ratioP2;P2;SDS_P1;SDS_P2;PMS_P1;PMS_P2;Temp;Humidity;BMP_temperature;BMP_pressure;BME280_temperature;BME280_humidity;BME280_pressure;Samples;Min_cycle;Max_cycle;Signal;HPM_P1;HPM_P2
2021/05/19 00:03:11;;;;;;;6.13;1.80;;;;;;;9.54;100.00;94555.50;10450238;28;20029;-77
2021/05/19 00:08:12;;;;;;;3.97;1.98;;;;;;;9.22;100.00;94540.53;10454340;28;20329;-82
2021/05/19 00:13:15;;;;;;;2.77;1.80;;;;;;;9.23;100.00;94545.63;10454139;28;20029;-83
2021/05/19 00:18:15;;;;;;;6.40;2.45;;;;;;;9.41;100.00;94549.63;10452487;28;20291;-83
2021/05/19 00:23:16;;;;;;;4.63;1.97;;;;;;;9.38;100.00;94555.53;10453433;28;20036;-82
2021/05/19 00:28:16;;;;;;;5.53;1.67;;;;;;;9.44;100.00;94563.59;10453512;28;20087;-83
2021/05/19 00:33:16;;;;;;;4.80;1.95;;;;;;;9.47;100.00;94560.34;10453823;28;20302;-83
2021/05/19 00:38:20;;;;;;;4.60;2.07;;;;;;;9.51;100.00;94553.38;10453472;28;20029;-83
2021/05/19 00:43:22;;;;;;;6.07;1.20;;;;;;;9.36;100.00;94549.66;10452966;28;20029;-82
2021/05/19 00:48:23;;;;;;;5.07;1.52;;;;;;;9.16;100.00;94544.28;10453388;28;20445;-83
2021/05/19 00:53:23;;;;;;;9.03;1.63;;;;;;;9.17;100.00;94546.69;10451111;28;20116;-83
2021/05/19 00:58:26;;;;;;;2.40;1.70;;;;;;;9.09;100.00;94547.25;10452904;28;20032;-82
2021/05/19 01:03:27;;;;;;;5.32;1.35;;;;;;;9.09;100.00;94554.50;10452718;28;20271;-82
2021/05/19 01:13:47;;;;;;;3.05;1.58;;;;;;;9.10;100.00;94540.81;10452203;28;20040;-82
2021/05/19 01:18:48;;;;;;;4.32;1.42;;;;;;;9.19;100.00;94544.53;10452264;28;20033;-83
2021/05/19 01:23:48;;;;;;;2.10;1.30;;;;;;;9.20;100.00;94545.38;10451984;28;20111;-83
2021/05/19 01:28:49;;;;;;;2.85;1.00;;;;;;;9.20;100.00;94546.16;10440024;28;20029;-83
2021/05/19 01:33:49;;;;;;;4.70;1.40;;;;;;;9.15;100.00;94556.09;10415270;28;20036;-83
2021/05/19 01:38:49;;;;;;;1.77;1.30;;;;;;;9.10;100.00;94540.81;10410732;28;20022;-82
2021/05/19 01:43:50;;;;;;;2.20;1.27;;;;;;;9.14;100.00;94549.09;10410011;28;20029;-82
2021/05/19 01:48:58;;;;;;;4.80;1.23;;;;;;;9.09;100.00;94543.75;10409663;28;20014;-82
2021/05/19 01:53:58;;;;;;;5.10;1.58;;;;;;;8.99;100.00;94547.25;10409793;28;20033;-82
2021/05/19 01:58:58;;;;;;;1.92;1.20;;;;;;;8.85;100.00;94563.03;10409744;28;20040;-83
2021/05/19 02:04:14;;;;;;;7.90;1.43;;;;;;;8.79;100.00;94558.72;10409580;28;20049;-83
2021/05/19 02:09:16;;;;;;;5.95;2.03;;;;;;;8.76;100.00;94548.56;10418267;28;20347;-82
2021/05/19 02:14:18;;;;;;;3.85;1.55;;;;;;;8.72;100.00;94549.09;10418021;28;20029;-82
2021/05/19 02:19:19;;;;;;;3.53;0.95;;;;;;;8.75;100.00;94546.94;10417646;28;20057;-82
2021/05/19 02:24:20;;;;;;;2.47;0.90;;;;;;;8.77;100.00;94539.44;10417243;28;20462;-83
2021/05/19 02:29:20;;;;;;;2.10;0.90;;;;;;;8.81;100.00;94527.13;10416785;28;20033;-83
2021/05/19 02:34:20;;;;;;;3.27;1.10;;;;;;;8.52;100.00;94541.00;10417131;28;20025;-83
2021/05/19 02:39:21;;;;;;;2.43;1.10;;;;;;;8.52;100.00;94532.97;10416446;28;20790;-83
2021/05/19 02:44:21;;;;;;;3.40;1.23;;;;;;;8.38;100.00;94519.25;10416849;28;20272;-83
2021/05/19 02:49:22;;;;;;;2.67;1.17;;;;;;;8.37;100.00;94515.78;10412826;28;20451;-82
2021/05/19 02:54:22;;;;;;;1.95;1.00;;;;;;;8.34;100.00;94512.81;10410100;28;20272;-82
2021/05/19 02:59:24;;;;;;;4.68;1.15;;;;;;;8.30;100.00;94517.91;10415053;28;20033;-83
2021/05/19 03:04:24;;;;;;;2.00;1.42;;;;;;;8.32;100.00;94523.78;10414493;28;20048;-82
2021/05/19 03:09:25;;;;;;;0.77;0.77;;;;;;;8.33;100.00;94530.78;10414908;28;20052;-82
2021/05/19 03:14:25;;;;;;;2.50;1.40;;;;;;;8.34;100.00;94539.59;10415005;28;20060;-82
2021/05/19 03:19:25;;;;;;;1.87;1.13;;;;;;;8.29;100.00;94545.75;10408988;28;20029;-81
2021/05/19 03:24:26;;;;;;;1.13;0.93;;;;;;;8.18;100.00;94542.22;10410196;28;20663;-82
2021/05/19 03:29:26;;;;;;;1.10;1.00;;;;;;;8.16;100.00;94538.19;10407758;28;20037;-78
2021/05/19 03:34:27;;;;;;;1.42;1.30;;;;;;;8.11;100.00;94538.19;10408777;28;20029;-78
2021/05/19 03:39:27;;;;;;;7.17;1.40;;;;;;;8.17;100.00;94543.28;10409373;28;20036;-78
2021/05/19 03:44:27;;;;;;;2.60;1.05;;;;;;;8.17;100.00;94545.16;10409064;28;20036;-77
2021/05/19 03:49:28;;;;;;;3.23;1.87;;;;;;;8.22;100.00;94547.88;10409144;28;20034;-78
2021/05/19 03:54:32;;;;;;;2.92;1.30;;;;;;;8.37;100.00;94545.25;10408672;28;20123;-78
2021/05/19 03:59:33;;;;;;;3.60;1.55;;;;;;;8.60;100.00;94539.69;10407506;28;20029;-79
2021/05/19 04:04:34;;;;;;;8.95;1.40;;;;;;;8.74;100.00;94542.66;10408411;28;20063;-79
2021/05/19 04:09:34;;;;;;;5.03;1.00;;;;;;;8.82;100.00;94539.44;10408607;28;20055;-79
2021/05/19 04:14:34;;;;;;;4.10;1.13;;;;;;;8.95;100.00;94544.28;10408146;28;20061;-78
2021/05/19 04:19:35;;;;;;;4.40;1.10;;;;;;;9.03;100.00;94542.97;10407440;28;20029;-78
2021/05/19 04:24:35;;;;;;;2.77;1.47;;;;;;;9.07;100.00;94549.41;10446465;28;20041;-78
2021/05/19 04:29:35;;;;;;;2.80;0.90;;;;;;;9.33;100.00;94542.13;10448427;28;20282;-78
2021/05/19 04:34:38;;;;;;;1.57;0.90;;;;;;;9.60;100.00;94546.41;10448165;28;20025;-78
2021/05/19 04:39:38;;;;;;;5.50;1.48;;;;;;;9.84;100.00;94557.34;10447872;28;20037;-77
2021/05/19 04:44:39;;;;;;;4.47;1.35;;;;;;;10.15;100.00;94554.56;10447515;28;20029;-78
2021/05/19 04:49:40;;;;;;;2.37;1.40;;;;;;;10.79;100.00;94552.13;10439351;28;20028;-78
2021/05/19 04:54:40;;;;;;;5.45;1.10;;;;;;;11.45;100.00;94540.03;10413731;28;20428;-79
2021/05/19 04:59:40;;;;;;;8.85;2.53;;;;;;;12.32;100.00;94526.72;10432519;28;20025;-78
2021/05/19 05:04:41;;;;;;;8.23;1.80;;;;;;;12.85;100.00;94535.72;10432546;28;20147;-79
2021/05/19 05:09:45;;;;;;;3.22;1.50;;;;;;;13.47;100.00;94520.19;10442195;28;20025;-78
2021/05/19 05:14:45;;;;;;;5.25;1.55;;;;;;;14.35;100.00;94507.75;10405151;28;20029;-78
2021/05/19 05:19:46;;;;;;;5.93;1.90;;;;;;;14.73;100.00;94512.91;10405368;28;20029;-78
2021/05/19 05:24:46;;;;;;;6.70;1.40;;;;;;;15.68;94.01;94500.34;10418031;28;20048;-79
2021/05/19 05:29:46;;;;;;;4.63;1.70;;;;;;;16.40;90.48;94520.13;10443053;28;20028;-79
2021/05/19 05:34:47;;;;;;;7.63;1.50;;;;;;;17.48;85.33;94508.69;10442564;28;20029;-79
2021/05/19 05:39:47;;;;;;;3.78;0.80;;;;;;;18.13;73.22;94516.84;10442492;28;20033;-73
2021/05/19 05:44:48;;;;;;;2.60;1.40;;;;;;;18.73;72.81;94527.75;10442824;28;20086;-72
2021/05/19 05:49:51;;;;;;;3.97;1.07;;;;;;;19.01;65.53;94521.81;10443376;28;20553;-72
2021/05/19 05:54:52;;;;;;;7.13;1.10;;;;;;;20.08;58.18;94524.03;10442461;28;20029;-72
2021/05/19 05:59:52;;;;;;;3.57;1.23;;;;;;;20.59;54.07;94512.78;10441885;28;20044;-73
2021/05/19 06:04:53;;;;;;;3.53;0.87;;;;;;;21.14;52.66;94505.09;10442844;28;20035;-73
2021/05/19 06:09:53;;;;;;;2.95;0.77;;;;;;;21.64;47.56;94495.59;10442656;28;20275;-73
2021/05/19 06:14:53;;;;;;;4.97;1.20;;;;;;;22.38;46.49;94493.53;10441605;28;20025;-72
2021/05/19 06:19:54;;;;;;;7.47;0.95;;;;;;;21.71;44.42;94503.19;10442573;28;20291;-73
2021/05/19 06:24:54;;;;;;;7.20;1.80;;;;;;;20.84;49.66;94491.75;10441088;28;20408;-73
2021/05/19 06:29:54;;;;;;;10.60;1.93;;;;;;;21.48;46.87;94492.78;10430760;28;20095;-72
2021/05/19 06:34:56;;;;;;;6.37;3.20;;;;;;;21.82;51.14;94493.34;10414768;28;20672;-73
2021/05/19 06:39:56;;;;;;;9.35;2.85;;;;;;;22.55;45.02;94473.19;10439952;28;20037;-72
2021/05/19 06:44:57;;;;;;;15.63;4.27;;;;;;;22.82;46.53;94482.44;10444300;28;20021;-72
2021/05/19 06:49:58;;;;;;;13.13;3.50;;;;;;;23.94;42.18;94468.22;10444513;28;20029;-72
2021/05/19 06:54:58;;;;;;;10.90;3.22;;;;;;;23.28;42.55;94474.41;10451027;28;20140;-72
2021/05/19 06:59:58;;;;;;;10.03;3.03;;;;;;;22.93;42.74;94464.28;10451142;28;20028;-72
2021/05/19 07:04:59;;;;;;;7.17;2.63;;;;;;;23.74;43.16;94459.22;10451559;28;20263;-72
2021/05/19 07:09:59;;;;;;;8.47;2.17;;;;;;;22.52;42.18;94452.78;10451318;28;20029;-72
2021/05/19 07:15:09;;;;;;;4.83;2.37;;;;;;;21.89;43.68;94456.34;10450615;28;20017;-72
2021/05/19 07:20:11;;;;;;;8.43;3.15;;;;;;;21.26;46.22;94455.06;10455832;28;20275;-73
2021/05/19 07:25:11;;;;;;;12.88;3.75;;;;;;;21.28;49.47;94437.19;10447991;28;20534;-73
2021/05/19 07:30:12;;;;;;;1.87;1.10;;;;;;;21.09;42.30;94429.63;10448003;28;20032;-72
2021/05/19 07:35:13;;;;;;;4.95;2.28;;;;;;;21.51;42.57;94422.94;10448760;28;20545;-72
2021/05/19 07:40:14;;;;;;;11.32;2.97;;;;;;;22.36;42.94;94409.03;10448346;28;20031;-72
2021/05/19 07:45:15;;;;;;;7.05;3.35;;;;;;;20.75;45.27;94406.41;10447966;28;20021;-72
2021/05/19 07:50:15;;;;;;;14.98;2.33;;;;;;;22.21;43.05;94398.88;10448496;28;20498;-72
2021/05/19 07:56:05;;;;;;;5.28;0.95;;;;;;;24.26;37.43;94380.88;10446321;28;20033;-72
2021/05/19 08:00:52;;;;;;;5.30;1.58;;;;;;;25.28;35.79;94381.03;10441180;28;20048;-73
2021/05/19 08:05:52;;;;;;;5.20;1.42;;;;;;;24.26;36.86;94372.66;10446866;28;20610;-73
2021/05/19 08:10:53;;;;;;;4.63;1.03;;;;;;;25.23;34.27;94365.66;10446607;28;20028;-72
2021/05/19 08:15:53;;;;;;;2.90;0.80;;;;;;;25.67;33.69;94366.13;10447697;28;20021;-72
2021/05/19 08:20:54;;;;;;;3.13;0.90;;;;;;;27.40;30.75;94365.22;10448453;28;20295;-73
2021/05/19 08:25:58;;;;;;;2.33;0.40;;;;;;;29.74;28.97;94350.16;10447743;28;20041;-72
2021/05/19 08:30:58;;;;;;;3.08;0.68;;;;;;;30.80;27.00;94357.16;10446181;28;20025;-72
2021/05/19 08:35:59;;;;;;;1.73;0.90;;;;;;;30.01;28.47;94346.81;10447608;28;20029;-72
2021/05/19 08:41:03;;;;;;;5.38;1.58;;;;;;;30.09;27.87;94339.22;10447650;28;20143;-72
2021/05/19 08:46:06;;;;;;;4.85;1.42;;;;;;;30.14;28.61;94334.03;10446990;28;20021;-72
2021/05/19 08:51:07;;;;;;;7.85;1.60;;;;;;;29.14;28.77;94333.47;10447239;28;20052;-72
2021/05/19 08:56:13;;;;;;;3.38;0.90;;;;;;;27.84;28.72;94340.44;10446186;28;20044;-72
2021/05/19 09:01:20;;;;;;;9.45;3.10;;;;;;;25.89;33.72;94342.31;10450043;28;20480;-72
2021/05/19 09:06:21;;;;;;;4.15;1.42;;;;;;;24.40;34.83;94348.13;10446125;28;20027;-72
2021/05/19 09:11:21;;;;;;;7.78;1.50;;;;;;;24.04;36.67;94333.09;10446583;28;20116;-72
2021/05/19 09:16:27;;;;;;;4.28;0.95;;;;;;;23.97;36.23;94328.28;10445240;28;20039;-72
2021/05/19 09:21:39;;;;;;;4.97;0.90;;;;;;;24.61;35.65;94326.84;10446316;28;20083;-72
2021/05/19 09:26:55;;;;;;;4.05;1.30;;;;;;;24.39;37.60;94335.56;10445971;28;20111;-72
2021/05/19 09:31:58;;;;;;;5.13;1.35;;;;;;;24.17;38.30;94326.25;10446911;28;20028;-72
2021/05/19 09:37:11;;;;;;;3.90;1.33;;;;;;;24.26;37.66;94320.47;10445854;28;20044;-72
2021/05/19 09:42:11;;;;;;;4.35;1.83;;;;;;;23.68;39.78;94308.63;10445486;28;20449;-72
2021/05/19 09:47:12;;;;;;;5.93;1.07;;;;;;;23.12;42.60;94317.44;10444770;28;20086;-72
2021/05/19 09:52:14;;;;;;;8.95;1.42;;;;;;;23.36;41.73;94297.13;10445588;28;20033;-72
2021/05/19 09:57:15;;;;;;;8.80;1.55;;;;;;;23.07;42.95;94301.28;10445703;28;20101;-72
2021/05/19 10:02:15;;;;;;;2.20;1.20;;;;;;;23.67;41.74;94300.75;10444739;28;20059;-72
2021/05/19 10:07:17;;;;;;;2.30;1.13;;;;;;;24.27;39.99;94288.31;10434839;28;20555;-72
2021/05/19 10:12:18;;;;;;;8.50;1.30;;;;;;;24.52;39.91;94277.66;10437503;28;20090;-72
2021/05/19 10:17:19;;;;;;;2.17;0.90;;;;;;;25.24;38.17;94272.94;10441171;28;20047;-72
2021/05/19 10:22:21;;;;;;;17.83;1.33;;;;;;;27.66;35.22;94252.06;10441356;28;20025;-72
2021/05/19 10:27:21;;;;;;;4.47;1.08;;;;;;;27.94;32.01;94251.28;10447464;28;20037;-71
2021/05/19 10:32:23;;;;;;;4.77;0.90;;;;;;;30.68;30.25;94239.19;10450245;28;20079;-72
2021/05/19 10:37:26;;;;;;;2.97;0.90;;;;;;;31.68;25.08;94229.88;10448191;28;20033;-72
2021/05/19 10:42:33;;;;;;;1.70;0.75;;;;;;;29.64;28.71;94224.41;10444839;28;20761;-72
2021/05/19 10:47:34;;;;;;;3.50;0.80;;;;;;;28.58;29.26;94211.63;10448224;28;20035;-72
2021/05/19 10:58:30;;;;;;;6.47;0.70;;;;;;;30.50;27.62;94192.28;10451261;28;20021;-72
2021/05/19 11:03:30;;;;;;;4.57;0.95;;;;;;;28.89;30.85;94186.19;10456190;28;20416;-72
2021/05/19 11:08:34;;;;;;;2.08;0.93;;;;;;;26.65;32.68;94183.75;10450533;28;20025;-72
2021/05/19 11:13:54;;;;;;;4.80;1.27;;;;;;;24.99;37.69;94196.53;10450748;28;20056;-72
2021/05/19 11:19:11;;;;;;;5.22;1.42;;;;;;;23.99;36.54;94166.00;10450075;28;20682;-72
2021/05/19 11:24:13;;;;;;;2.58;0.82;;;;;;;23.32;36.76;94173.66;10458274;28;20126;-72
2021/05/19 11:29:15;;;;;;;2.90;0.70;;;;;;;22.96;37.55;94175.81;10448212;28;20488;-72
2021/05/19 11:34:21;;;;;;;2.78;1.08;;;;;;;22.98;38.42;94164.47;10447649;28;20813;-72
2021/05/19 11:39:39;;;;;;;7.80;0.85;;;;;;;22.91;39.30;94145.19;10447826;28;20033;-72
2021/05/19 11:44:43;;;;;;;3.05;1.00;;;;;;;23.28;38.83;94130.91;10448897;28;20028;-72
2021/05/19 11:49:43;;;;;;;5.47;1.10;;;;;;;23.28;37.41;94120.72;10446839;28;20052;-72
2021/05/19 11:54:43;;;;;;;6.63;1.80;;;;;;;23.71;37.99;94120.53;10448207;28;20531;-72
2021/05/19 11:59:45;;;;;;;5.20;1.50;;;;;;;24.05;36.75;94102.13;10447808;28;20029;-71
2021/05/19 12:04:46;;;;;;;13.73;2.83;;;;;;;24.16;36.08;94105.00;10448151;28;20059;-72
2021/05/19 12:09:46;;;;;;;4.87;1.93;;;;;;;24.02;35.90;94100.13;10448466;28;20037;-72
2021/05/19 12:14:55;;;;;;;8.57;2.90;;;;;;;24.10;36.01;94092.78;10448344;28;20037;-72
2021/05/19 12:19:55;;;;;;;13.00;3.65;;;;;;;24.33;35.77;94087.13;10447527;28;20036;-72
2021/05/19 12:24:56;;;;;;;6.63;2.40;;;;;;;24.31;35.54;94075.75;10446152;28;20049;-72
2021/05/19 12:29:59;;;;;;;7.32;2.08;;;;;;;24.46;36.00;94081.34;10448205;28;20279;-72
2021/05/19 12:35:12;;;;;;;10.82;2.55;;;;;;;24.61;37.19;94063.88;10448542;28;20039;-72
2021/05/19 12:40:15;;;;;;;7.32;1.30;;;;;;;24.62;32.52;94048.97;10448219;28;20059;-72
2021/05/19 12:45:24;;;;;;;6.35;1.17;;;;;;;25.00;32.53;94054.34;10448317;28;20032;-72
2021/05/19 12:50:25;;;;;;;1.38;1.10;;;;;;;24.79;32.25;94049.50;10447926;28;20086;-72
2021/05/19 12:55:25;;;;;;;3.97;0.73;;;;;;;24.55;28.04;94024.16;10447571;28;20091;-72
2021/05/19 13:00:26;;;;;;;5.33;0.60;;;;;;;24.55;29.90;94024.16;10445720;28;20112;-72
2021/05/19 13:05:29;;;;;;;1.00;0.40;;;;;;;23.88;28.31;94023.16;10445737;28;20056;-72
2021/05/19 13:10:36;;;;;;;3.40;0.82;;;;;;;23.88;30.62;94017.66;10445635;28;21238;-72
2021/05/19 13:15:45;;;;;;;2.03;0.57;;;;;;;23.46;27.68;94010.50;10443427;28;20025;-71
2021/05/19 13:21:01;;;;;;;1.35;0.50;;;;;;;23.23;28.85;93996.88;10446778;28;20120;-71
2021/05/19 13:26:06;;;;;;;2.17;0.50;;;;;;;23.43;28.63;94003.00;10438477;28;20508;-72
2021/05/19 13:31:08;;;;;;;2.00;0.52;;;;;;;23.41;29.75;93999.84;10445742;28;20403;-71
2021/05/19 13:41:28;;;;;;;5.53;0.60;;;;;;;23.01;29.52;93974.63;10403454;28;20452;-71
2021/05/19 13:46:29;;;;;;;2.37;0.60;;;;;;;22.83;29.65;93988.91;10429392;28;20021;-71
2021/05/19 13:51:29;;;;;;;4.37;0.53;;;;;;;22.96;27.24;93983.19;10432447;28;20280;-71
2021/05/19 13:56:29;;;;;;;0.20;0.20;;;;;;;23.24;25.27;93982.81;10402421;28;20295;-71
2021/05/19 14:01:30;;;;;;;2.93;0.63;;;;;;;23.32;26.13;93978.22;10416574;28;20021;-71
2021/05/19 14:06:31;;;;;;;44.33;14.73;;;;;;;23.49;26.55;93972.13;10453484;28;20168;-71
2021/05/19 14:11:35;;;;;;;5.50;1.27;;;;;;;23.55;26.61;93973.38;10452677;28;20036;-71
2021/05/19 14:32:12;;;;;;;2.20;0.40;;;;;;;23.70;25.82;93970.78;10451989;28;20041;-72
2021/05/19 14:37:33;;;;;;;1.08;0.30;;;;;;;23.66;24.74;93961.72;10450973;28;20028;-71
2021/05/19 15:03:50;;;;;;;1.60;0.57;;;;;;;23.46;26.33;93939.19;10451116;28;20112;-72
2021/05/19 15:08:50;;;;;;;4.25;0.52;;;;;;;23.41;26.52;93920.31;10450591;28;20020;-71
2021/05/19 15:13:51;;;;;;;1.88;0.55;;;;;;;23.11;26.96;93918.38;10449641;28;20032;-71
2021/05/19 15:18:51;;;;;;;0.80;0.45;;;;;;;22.97;27.48;93930.75;10450500;28;20033;-71
2021/05/19 15:23:52;;;;;;;3.37;0.80;;;;;;;22.99;27.71;93922.16;10449740;28;20047;-72
2021/05/19 15:28:52;;;;;;;2.45;0.60;;;;;;;23.04;28.19;93903.44;10450250;28;20188;-71
2021/05/19 15:33:53;;;;;;;6.72;0.90;;;;;;;23.11;27.51;93897.25;10450211;28;20040;-71
2021/05/19 15:38:53;;;;;;;0.57;0.43;;;;;;;22.77;26.81;93902.69;10449207;28;20029;-71
2021/05/19 15:43:54;;;;;;;2.87;0.57;;;;;;;22.70;27.25;93897.94;10449036;28;20074;-71
2021/05/19 15:48:55;;;;;;;1.55;0.85;;;;;;;22.75;28.00;93893.28;10449200;28;20025;-71
2021/05/19 15:53:57;;;;;;;1.13;0.50;;;;;;;22.56;26.96;93895.00;10449155;28;20033;-71
2021/05/19 15:58:57;;;;;;;3.95;1.30;;;;;;;22.41;27.63;93885.81;10449182;28;20025;-71
2021/05/19 16:03:59;;;;;;;5.13;0.70;;;;;;;22.34;28.11;93886.50;10448668;28;20479;-71
2021/05/19 16:09:00;;;;;;;3.67;0.50;;;;;;;22.18;28.53;93880.34;10448175;28;20032;-71
2021/05/19 16:14:01;;;;;;;3.58;1.00;;;;;;;22.13;29.56;93884.19;10448098;28;20036;-72
2021/05/19 16:19:01;;;;;;;2.40;0.80;;;;;;;22.00;29.89;93875.38;10448103;28;20036;-71
2021/05/19 16:24:04;;;;;;;3.90;0.70;;;;;;;21.93;29.83;93869.03;10413915;28;20056;-71
2021/05/19 16:35:12;;;;;;;3.85;1.00;;;;;;;21.95;30.05;93878.44;10401632;28;20543;-72
2021/05/19 16:40:12;;;;;;;3.87;0.90;;;;;;;21.98;31.00;93879.66;10405383;28;20053;-72
2021/05/19 16:45:14;;;;;;;3.27;0.90;;;;;;;21.89;30.98;93890.84;10406132;28;20029;-72
2021/05/19 16:50:14;;;;;;;5.15;1.27;;;;;;;21.83;30.65;93892.31;10405132;28;20499;-72
2021/05/19 16:55:14;;;;;;;2.40;1.20;;;;;;;21.70;31.35;93896.38;10405149;28;20034;-72
2021/05/19 17:00:15;;;;;;;15.82;1.20;;;;;;;21.41;32.35;93893.91;10405633;28;20307;-71
2021/05/19 17:05:16;;;;;;;2.00;0.68;;;;;;;21.38;33.10;93874.69;10424360;28;20025;-72
2021/05/19 17:10:16;;;;;;;6.53;1.20;;;;;;;21.33;31.96;93886.72;10406832;28;20017;-72
2021/05/19 17:15:17;;;;;;;6.30;1.67;;;;;;;21.35;34.11;93884.44;10442948;28;20033;-72
2021/05/19 17:20:17;;;;;;;6.33;1.53;;;;;;;21.27;33.88;93875.31;10443475;28;20116;-72
2021/05/19 17:25:18;;;;;;;3.83;1.20;;;;;;;21.12;33.90;93870.72;10443150;28;20045;-72
2021/05/19 17:30:19;;;;;;;5.45;1.65;;;;;;;20.99;35.18;93868.16;10441303;28;20472;-72
2021/05/19 17:35:23;;;;;;;15.90;3.70;;;;;;;20.82;36.60;93866.66;10438056;28;20031;-73
2021/05/19 17:40:25;;;;;;;16.50;3.83;;;;;;;20.81;40.00;93859.59;10441337;28;20028;-72
2021/05/19 17:45:26;;;;;;;11.93;3.13;;;;;;;20.34;41.78;93865.22;10441736;28;20403;-71
2021/05/19 17:50:26;;;;;;;10.43;2.40;;;;;;;19.70;41.21;93863.34;10442753;28;20051;-72
2021/05/19 17:55:27;;;;;;;4.20;1.93;;;;;;;19.50;41.30;93861.69;10442230;28;20921;-72
2021/05/19 18:00:27;;;;;;;4.03;1.97;;;;;;;19.44;42.37;93867.41;10440703;28;20287;-70
2021/05/19 18:05:28;;;;;;;9.23;1.93;;;;;;;19.23;42.42;93872.31;10442831;28;20831;-72
2021/05/19 18:10:30;;;;;;;14.77;3.08;;;;;;;19.23;43.64;93864.16;10442211;28;20329;-73
2021/05/19 18:15:31;;;;;;;17.42;4.47;;;;;;;19.06;44.45;93868.75;10436495;28;20075;-72
2021/05/19 18:20:34;;;;;;;31.55;9.00;;;;;;;18.97;49.25;93867.34;10440891;28;20033;-73
2021/05/19 18:25:36;;;;;;;23.23;5.03;;;;;;;18.75;48.47;93862.06;10434861;28;20050;-72
2021/05/19 18:30:41;;;;;;;8.10;3.58;;;;;;;18.57;49.50;93861.56;10444333;28;20037;-72
2021/05/19 18:35:42;;;;;;;6.43;1.55;;;;;;;18.44;46.96;93854.56;10412764;28;20039;-72
2021/05/19 18:40:42;;;;;;;10.07;2.97;;;;;;;18.43;48.02;93855.69;10444453;28;20025;-72
2021/05/19 18:45:43;;;;;;;5.93;2.80;;;;;;;18.26;48.64;93856.75;10444771;28;20271;-72
2021/05/19 18:50:44;;;;;;;6.55;2.80;;;;;;;18.14;50.48;93860.31;10418026;28;20036;-72
2021/05/19 18:55:44;;;;;;;7.63;5.05;;;;;;;18.02;50.56;93865.75;10414411;28;20604;-72
2021/05/19 19:00:45;;;;;;;9.80;3.28;;;;;;;17.82;52.83;93862.81;10448258;28;20029;-72
2021/05/19 19:05:46;;;;;;;4.00;2.72;;;;;;;17.81;53.39;93874.03;10449566;28;20021;-72
2021/05/19 19:10:46;;;;;;;14.05;2.85;;;;;;;17.76;54.27;93867.69;10450701;28;20412;-72
2021/05/19 19:15:46;;;;;;;9.38;2.63;;;;;;;17.78;58.01;93864.63;10450168;28;20032;-71
2021/05/19 19:20:47;;;;;;;9.50;2.00;;;;;;;17.88;51.40;93861.44;10450676;28;20136;-71
2021/05/19 19:25:47;;;;;;;5.18;2.47;;;;;;;18.05;56.72;93871.28;10436451;28;20058;-72
2021/05/19 19:30:48;;;;;;;12.70;2.13;;;;;;;18.13;59.32;93866.88;10408839;28;20045;-72
2021/05/19 19:35:48;;;;;;;7.95;2.33;;;;;;;18.16;56.35;93868.13;10422342;28;20072;-71
2021/05/19 19:40:49;;;;;;;4.23;2.27;;;;;;;18.18;60.33;93871.28;10412692;28;20805;-72
2021/05/19 19:45:49;;;;;;;11.38;2.75;;;;;;;18.17;61.73;93881.38;10405755;28;20062;-72
2021/05/19 19:50:50;;;;;;;16.00;2.37;;;;;;;18.12;63.75;93884.31;10406175;28;20467;-72
2021/05/19 19:55:51;;;;;;;5.80;2.72;;;;;;;18.14;63.14;93887.50;10404919;28;20401;-72
2021/05/19 20:00:55;;;;;;;10.10;3.37;;;;;;;18.12;63.75;93867.22;10406159;28;20029;-71
2021/05/19 20:05:56;;;;;;;10.02;3.42;;;;;;;18.05;60.00;93873.22;10406985;28;20376;-72
2021/05/19 20:10:58;;;;;;;18.77;4.00;;;;;;;18.00;62.34;93874.25;10406906;28;20032;-72
2021/05/19 20:16:01;;;;;;;9.50;3.00;;;;;;;18.01;65.95;93872.31;10406670;28;20488;-72
2021/05/19 20:21:01;;;;;;;11.27;3.63;;;;;;;17.91;70.61;93882.53;10405751;28;20025;-72
2021/05/19 20:26:02;;;;;;;8.35;3.08;;;;;;;17.85;80.60;93886.59;10405012;28;20037;-77
2021/05/19 20:31:03;;;;;;;9.38;4.07;;;;;;;17.77;79.77;93893.69;10404349;28;20100;-78
2021/05/19 20:36:06;;;;;;;12.80;1.93;;;;;;;17.58;84.27;93886.13;10342519;28;20026;-77
2021/05/19 20:41:06;;;;;;;5.60;2.45;;;;;;;17.16;95.44;93888.97;10315030;28;20021;-77
2021/05/19 20:46:07;;;;;;;12.80;1.83;;;;;;;16.55;100.00;93903.88;10370200;28;20491;-77
2021/05/19 20:51:09;;;;;;;9.35;1.90;;;;;;;16.12;100.00;93915.03;10420362;28;20029;-70
2021/05/19 20:56:10;;;;;;;8.30;1.48;;;;;;;15.62;100.00;93901.06;10407068;28;20044;-72
2021/05/19 21:01:10;;;;;;;7.80;1.50;;;;;;;14.99;100.00;93914.31;10402654;28;20472;-72
2021/05/19 21:06:11;;;;;;;10.48;2.75;;;;;;;14.75;100.00;93921.03;10399225;28;20268;-71
2021/05/19 21:11:11;;;;;;;6.95;2.25;;;;;;;14.52;100.00;93921.13;10400699;28;20092;-71
2021/05/19 21:16:12;;;;;;;7.60;1.67;;;;;;;14.46;100.00;93935.94;10399063;28;20118;-71
2021/05/19 21:21:12;;;;;;;7.10;1.98;;;;;;;14.55;100.00;93948.66;10398657;28;20029;-71
2021/05/19 21:26:12;;;;;;;7.63;3.53;;;;;;;14.43;100.00;93977.13;10408940;28;20471;-71
2021/05/19 21:31:13;;;;;;;3.03;1.30;;;;;;;14.34;100.00;93976.31;10441977;28;20324;-71
2021/05/19 21:36:15;;;;;;;8.00;1.33;;;;;;;14.30;100.00;93973.47;10442255;28;20063;-72
2021/05/19 21:41:16;;;;;;;5.32;1.55;;;;;;;14.29;100.00;93984.56;10440531;28;20021;-72
2021/05/19 21:46:16;;;;;;;10.45;1.50;;;;;;;14.18;100.00;93987.56;10441135;28;20025;-72
2021/05/19 21:51:16;;;;;;;4.93;1.67;;;;;;;14.17;100.00;93993.28;10442325;28;20499;-71
2021/05/19 21:56:17;;;;;;;7.03;1.83;;;;;;;14.07;100.00;93991.66;10441728;28;20029;-71
2021/05/19 22:01:18;;;;;;;4.60;2.30;;;;;;;14.00;100.00;93991.34;10441242;28;20032;-71
2021/05/19 22:06:18;;;;;;;6.85;2.38;;;;;;;13.95;100.00;93996.88;10441692;28;20060;-72
2021/05/19 22:11:19;;;;;;;5.45;1.70;;;;;;;13.98;100.00;93996.25;10440735;28;21202;-71
2021/05/19 22:16:21;;;;;;;7.88;1.65;;;;;;;13.87;100.00;93998.44;10440892;28;20025;-72
2021/05/19 22:26:24;;;;;;;7.88;2.17;;;;;;;13.56;100.00;93972.22;10447997;28;20053;-71
2021/05/19 22:31:27;;;;;;;7.63;2.43;;;;;;;13.44;100.00;93974.75;10448900;28;20029;-71
2021/05/19 22:36:29;;;;;;;5.68;1.48;;;;;;;13.38;100.00;93976.78;10448699;28;20032;-71
2021/05/19 22:41:29;;;;;;;9.68;2.05;;;;;;;13.42;100.00;93975.03;10448296;28;20044;-72
2021/05/19 22:46:32;;;;;;;4.73;1.60;;;;;;;13.46;100.00;93970.59;10448748;28;20365;-72
2021/05/19 22:51:36;;;;;;;6.20;1.75;;;;;;;13.62;100.00;93973.72;10448409;28;20279;-72
2021/05/19 22:56:37;;;;;;;5.75;1.63;;;;;;;13.70;100.00;93965.94;10448194;28;20021;-72
2021/05/19 23:01:37;;;;;;;3.88;1.88;;;;;;;13.94;100.00;93946.66;10416682;28;20421;-71
2021/05/19 23:06:38;;;;;;;6.13;1.90;;;;;;;13.96;100.00;93936.34;10406909;28;20025;-71
2021/05/19 23:11:38;;;;;;;4.10;2.10;;;;;;;13.82;100.00;93937.25;10406372;28;20067;-71
2021/05/19 23:16:38;;;;;;;5.97;2.10;;;;;;;14.07;100.00;93931.44;10406309;28;20029;-71
2021/05/19 23:21:39;;;;;;;5.93;1.73;;;;;;;14.23;100.00;93935.25;10406002;28;20029;-71
2021/05/19 23:26:39;;;;;;;5.67;2.00;;;;;;;14.16;100.00;93938.47;10405302;28;20307;-72
2021/05/19 23:31:40;;;;;;;13.47;1.50;;;;;;;14.43;100.00;93935.75;10437092;28;20028;-72
2021/05/19 23:36:40;;;;;;;9.75;1.98;;;;;;;14.47;100.00;93942.94;10444133;28;20286;-71
2021/05/19 23:41:40;;;;;;;5.63;1.63;;;;;;;14.59;100.00;93933.41;10446117;28;20482;-72
2021/05/19 23:46:41;;;;;;;4.20;1.77;;;;;;;14.67;100.00;93938.06;10447512;28;20270;-71
2021/05/19 23:51:42;;;;;;;6.07;1.52;;;;;;;14.69;100.00;93936.63;10447133;28;20084;-72
2021/05/19 23:56:42;;;;;;;7.23;1.80;;;;;;;14.64;100.00;93934.06;10446557;28;20032;-72
